createdAt,value
2023-03-05T00:02:16.386Z,11.50
2023-03-05T00:07:19.520Z,13.10
2023-03-05T00:12:22.263Z,11.60
2023-03-05T00:17:25.085Z,15.00
2023-03-05T00:22:27.940Z,13.70
2023-03-05T00:27:30.841Z,13.70
2023-03-05T00:32:33.745Z,13.20
2023-03-05T00:37:36.563Z,14.30
2023-03-05T00:42:39.424Z,18.80
2023-03-05T00:47:42.222Z,14.90
2023-03-05T00:52:45.269Z,14.60
2023-03-05T00:57:48.231Z,14.00
2023-03-05T01:02:51.131Z,14.90
2023-03-05T01:07:54.996Z,15.20
2023-03-05T01:12:58.037Z,17.30
2023-03-05T01:18:00.933Z,14.40
2023-03-05T01:23:03.799Z,14.90
2023-03-05T01:28:06.814Z,16.90
2023-03-05T01:33:09.855Z,16.30
2023-03-05T01:38:12.690Z,16.10
2023-03-05T01:43:20.280Z,18.00
2023-03-05T01:48:23.280Z,16.00
2023-03-05T01:53:26.030Z,17.70
2023-03-05T01:58:29.062Z,21.40
2023-03-05T02:03:32.150Z,16.70
2023-03-05T02:08:35.132Z,18.70
2023-03-05T02:13:40.826Z,18.30
2023-03-05T02:18:43.793Z,16.10
2023-03-05T02:23:46.747Z,14.80
2023-03-05T02:28:53.718Z,16.50
2023-03-05T02:33:56.781Z,14.60
2023-03-05T02:38:59.733Z,15.70
2023-03-05T02:44:02.533Z,15.10
2023-03-05T02:49:06.836Z,18.30
2023-03-05T02:54:09.650Z,17.90
2023-03-05T02:59:12.430Z,16.20
2023-03-05T03:04:15.263Z,17.40
2023-03-05T03:09:18.190Z,16.00
2023-03-05T03:14:21.102Z,15.60
2023-03-05T03:19:23.918Z,16.40
2023-03-05T03:24:27.087Z,14.40
2023-03-05T03:29:30.461Z,14.40
2023-03-05T03:34:33.341Z,13.50
2023-03-05T03:39:36.357Z,17.20
2023-03-05T03:44:39.228Z,18.80
2023-03-05T03:49:42.042Z,16.40
2023-03-05T03:54:44.863Z,25.40
2023-03-05T03:59:47.757Z,14.30
2023-03-05T04:04:50.692Z,15.00
2023-03-05T04:09:53.614Z,14.60
2023-03-05T04:14:56.503Z,18.30
2023-03-05T04:19:59.307Z,15.00
2023-03-05T04:25:06.466Z,13.70
2023-03-05T04:30:12.196Z,14.00
2023-03-05T04:35:15.221Z,13.40
2023-03-05T04:40:18.590Z,17.90
2023-03-05T04:45:21.526Z,13.90
2023-03-05T04:50:24.563Z,10.90
2023-03-05T04:55:27.436Z,15.10
2023-03-05T05:00:30.310Z,13.60
2023-03-05T05:05:33.290Z,14.50
2023-03-05T05:10:40.100Z,14.00
2023-03-05T05:15:43.147Z,14.80
2023-03-05T05:20:48.013Z,14.20
2023-03-05T05:26:01.467Z,15.10
2023-03-05T05:31:09.005Z,13.70
2023-03-05T05:36:15.338Z,13.80
2023-03-05T05:41:18.841Z,11.90
2023-03-05T05:46:22.103Z,14.90
2023-03-05T05:51:25.077Z,14.20
2023-03-05T05:56:28.010Z,11.40
2023-03-05T06:01:31.954Z,10.00
2023-03-05T06:06:35.133Z,11.30
2023-03-05T06:11:38.519Z,12.30
2023-03-05T06:16:41.612Z,9.60
2023-03-05T06:21:44.556Z,9.30
2023-03-05T06:26:48.648Z,10.50
2023-03-05T06:31:51.562Z,12.80
2023-03-05T06:36:54.337Z,8.90
2023-03-05T06:41:57.768Z,6.90
2023-03-05T06:47:00.545Z,7.10
2023-03-05T06:52:04.687Z,10.30
2023-03-05T06:57:07.549Z,6.20
2023-03-05T07:02:11.761Z,10.80
2023-03-05T07:07:14.719Z,11.10
2023-03-05T07:12:17.586Z,11.30
2023-03-05T07:17:20.410Z,11.60
2023-03-05T07:22:23.324Z,9.60
2023-03-05T07:27:26.396Z,7.30
2023-03-05T07:32:29.241Z,10.60
2023-03-05T07:37:32.214Z,9.60
2023-03-05T07:42:35.029Z,7.90
2023-03-05T07:47:38.023Z,7.70
2023-03-05T07:52:41.070Z,7.10
2023-03-05T07:57:44.020Z,7.90
2023-03-05T08:02:47.315Z,8.20
2023-03-05T08:07:50.557Z,8.50
2023-03-05T08:12:53.708Z,6.20
2023-03-05T08:17:56.601Z,10.10
2023-03-05T08:22:59.362Z,9.10
2023-03-05T08:28:02.198Z,6.90
2023-03-05T08:33:05.260Z,8.90
2023-03-05T08:38:08.149Z,8.30
2023-03-05T08:43:10.983Z,9.80
2023-03-05T08:48:13.767Z,9.50
2023-03-05T08:53:16.668Z,10.00
2023-03-05T08:58:19.474Z,9.10
2023-03-05T09:03:22.486Z,8.10
2023-03-05T09:08:25.524Z,8.60
2023-03-05T09:13:28.477Z,10.10
2023-03-05T09:18:31.565Z,10.90
2023-03-05T09:23:34.488Z,13.60
2023-03-05T09:28:37.408Z,15.20
2023-03-05T09:33:40.291Z,13.90
2023-03-05T09:38:43.155Z,13.30
2023-03-05T09:43:45.948Z,9.90
2023-03-05T09:49:20.368Z,13.30
2023-03-05T09:54:35.894Z,14.20
2023-03-05T09:59:59.201Z,14.20
2023-03-05T10:05:26.155Z,11.50
2023-03-05T10:10:40.826Z,13.30
2023-03-05T10:15:59.796Z,16.00
2023-03-05T10:21:24.624Z,14.70
2023-03-05T10:26:43.686Z,17.60
2023-03-05T10:32:06.190Z,15.10
2023-03-05T10:37:58.737Z,13.20
2023-03-05T10:43:54.338Z,15.60
2023-03-05T10:49:18.775Z,16.30
2023-03-05T10:54:34.507Z,17.60
2023-03-05T10:59:37.607Z,14.10
2023-03-05T11:04:40.744Z,18.00
2023-03-05T11:09:47.099Z,14.20
2023-03-05T11:15:14.253Z,17.50
2023-03-05T11:20:29.392Z,15.20
2023-03-05T11:25:36.061Z,13.90
2023-03-05T11:30:39.227Z,11.60
2023-03-05T11:35:43.549Z,12.50
2023-03-05T11:40:46.743Z,14.30
2023-03-05T11:45:56.086Z,10.00
2023-03-05T11:51:01.010Z,10.00
2023-03-05T11:56:30.551Z,12.20
2023-03-05T12:01:37.861Z,12.00
2023-03-05T12:06:53.997Z,14.20
2023-03-05T12:12:28.636Z,13.60
2023-03-05T12:17:37.635Z,13.30
2023-03-05T12:22:41.961Z,9.90
2023-03-05T12:27:46.383Z,7.10
2023-03-05T12:32:52.582Z,6.10
2023-03-05T12:37:56.183Z,6.20
2023-03-05T12:43:03.402Z,6.00
2023-03-05T12:48:13.462Z,5.30
2023-03-05T12:53:19.383Z,6.70
2023-03-05T12:58:44.026Z,8.70
2023-03-05T13:03:55.118Z,9.10
2023-03-05T13:09:18.934Z,10.80
2023-03-05T13:14:42.798Z,12.40
2023-03-05T13:19:45.637Z,12.00
2023-03-05T13:24:48.548Z,12.40
2023-03-05T13:29:52.734Z,11.40
2023-03-05T13:34:57.448Z,13.20
2023-03-05T13:40:07.443Z,10.90
2023-03-05T13:45:28.995Z,9.30
2023-03-05T13:50:33.084Z,8.30
2023-03-05T13:55:36.144Z,11.60
2023-03-05T14:00:40.144Z,10.10
2023-03-05T14:05:44.628Z,8.10
2023-03-05T14:10:47.752Z,9.10
2023-03-05T14:16:09.277Z,6.20
2023-03-05T14:21:12.548Z,8.80
2023-03-05T14:26:35.173Z,10.70
2023-03-05T14:31:54.648Z,9.60
2023-03-05T14:37:03.203Z,10.00
2023-03-05T14:47:24.971Z,8.30
2023-03-05T14:52:28.274Z,11.30
2023-03-05T14:57:33.100Z,9.90
2023-03-05T15:02:36.033Z,9.60
2023-03-05T15:07:38.976Z,7.50
2023-03-05T15:12:42.587Z,8.90
2023-03-05T15:17:51.823Z,10.80
2023-03-05T15:22:55.207Z,12.30
2023-03-05T15:28:00.514Z,10.20
2023-03-05T15:33:12.270Z,14.10
2023-03-05T15:38:16.229Z,8.50
2023-03-05T15:43:19.578Z,11.90
2023-03-05T15:48:22.504Z,10.10
2023-03-05T15:53:25.440Z,13.30
2023-03-05T15:58:28.304Z,9.20
2023-03-05T16:03:31.339Z,10.50
2023-03-05T16:08:34.306Z,10.50
2023-03-05T16:13:37.149Z,12.10
2023-03-05T16:18:42.110Z,12.80
2023-03-05T16:23:45.353Z,10.80
2023-03-05T16:28:48.325Z,12.60
2023-03-05T16:33:51.621Z,16.70
2023-03-05T16:38:59.257Z,14.50
2023-03-05T16:44:02.138Z,15.50
2023-03-05T16:49:05.230Z,16.10
2023-03-05T16:54:10.057Z,13.10
2023-03-05T16:59:13.450Z,15.80
2023-03-05T17:04:16.681Z,16.60
2023-03-05T17:09:24.093Z,18.20
2023-03-05T17:14:27.086Z,17.20
2023-03-05T17:19:30.109Z,16.60
2023-03-05T17:24:33.546Z,19.90
2023-03-05T17:29:36.378Z,21.30
2023-03-05T17:34:39.190Z,23.60
2023-03-05T17:39:42.136Z,22.70
2023-03-05T17:44:45.247Z,28.20
2023-03-05T17:49:49.221Z,24.50
2023-03-05T17:54:53.446Z,25.00
2023-03-05T17:59:56.550Z,24.70
2023-03-05T18:04:59.539Z,23.20
2023-03-05T18:10:03.471Z,23.50
2023-03-05T18:15:09.109Z,28.60
2023-03-05T18:20:30.833Z,28.80
2023-03-05T18:25:33.932Z,25.30
2023-03-05T18:30:41.245Z,26.20
2023-03-05T18:35:44.477Z,26.90
2023-03-05T18:40:47.932Z,30.70
2023-03-05T18:45:52.877Z,31.60
2023-03-05T18:50:56.014Z,31.60
2023-03-05T18:55:59.064Z,33.40
2023-03-05T19:01:03.221Z,29.30
2023-03-05T19:06:07.071Z,27.20
2023-03-05T19:11:18.110Z,27.90
2023-03-05T19:16:29.293Z,34.30
2023-03-05T19:21:32.338Z,27.30
2023-03-05T19:26:35.206Z,29.40
2023-03-05T19:31:38.354Z,31.20
2023-03-05T19:36:41.206Z,29.00
2023-03-05T19:41:44.082Z,31.70
2023-03-05T19:46:48.907Z,32.80
2023-03-05T19:51:52.725Z,36.50
2023-03-05T19:56:55.931Z,33.00
2023-03-05T20:01:58.876Z,37.20
2023-03-05T20:07:03.821Z,35.40
2023-03-05T20:12:07.660Z,40.80
2023-03-05T20:17:10.665Z,34.40
2023-03-05T20:22:13.551Z,41.40
2023-03-05T20:27:16.395Z,39.50
2023-03-05T20:32:19.849Z,37.70
2023-03-05T20:38:20.756Z,40.80
2023-03-05T20:43:23.839Z,41.30
2023-03-05T20:48:29.224Z,41.50
2023-03-05T20:53:32.084Z,44.50
2023-03-05T20:58:34.970Z,52.00
2023-03-05T21:03:38.916Z,51.60
2023-03-05T21:08:41.990Z,49.60
2023-03-05T21:13:44.943Z,46.90
2023-03-05T21:18:48.199Z,42.50
2023-03-05T21:23:52.142Z,43.90
2023-03-05T21:28:55.020Z,58.70
2023-03-05T21:33:57.816Z,56.60
2023-03-05T21:39:00.760Z,48.40
2023-03-05T21:44:04.215Z,52.00
2023-03-05T21:49:06.981Z,53.10
2023-03-05T21:54:09.826Z,56.30
2023-03-05T21:59:12.708Z,45.90
2023-03-05T22:04:15.546Z,39.30
2023-03-05T22:09:18.383Z,38.40
2023-03-05T22:14:21.217Z,37.50
2023-03-05T22:19:25.326Z,34.10
2023-03-05T22:24:28.152Z,35.10
2023-03-05T22:29:30.963Z,37.20
2023-03-05T22:34:33.853Z,37.00
2023-03-05T22:39:36.627Z,36.80
2023-03-05T22:44:39.455Z,34.00
2023-03-05T22:49:42.365Z,37.70
2023-03-05T22:54:45.218Z,34.30
2023-03-05T22:59:49.843Z,35.00
2023-03-05T23:04:55.003Z,31.40
2023-03-05T23:10:04.812Z,34.60
2023-03-05T23:15:11.638Z,35.60
2023-03-05T23:20:17.144Z,42.40
2023-03-05T23:25:22.674Z,36.80
2023-03-05T23:30:27.382Z,34.40
2023-03-05T23:35:36.423Z,39.50
2023-03-05T23:40:48.205Z,34.20
2023-03-05T23:45:54.898Z,36.80
2023-03-05T23:50:57.959Z,35.00
2023-03-05T23:56:00.905Z,36.00
